Time;durP1;ratioP1;P1;durP2;ratioP2;P2;SDS_P1;SDS_P2;PMS_P1;PMS_P2;Temp;Humidity;BMP_temperature;BMP_pressure;BME280_temperature;BME280_humidity;BME280_pressure;Samples;Min_cycle;Max_cycle;Signal;HPM_P1;HPM_P2
2022/12/26 00:01:28;;;;;;;39.70;20.52;;;10.70;99.90;;;;;;5115240;28;20184;-55
2022/12/26 00:03:55;;;;;;;26.30;17.92;;;10.70;99.90;;;;;;5115164;28;20169;-52
2022/12/26 00:06:24;;;;;;;43.58;23.02;;;10.60;99.90;;;;;;5115330;28;20178;-51
2022/12/26 00:08:50;;;;;;;21.90;16.50;;;10.60;99.90;;;;;;5114139;28;20169;-53
2022/12/26 00:11:17;;;;;;;33.25;19.50;;;10.60;99.90;;;;;;5115146;28;20238;-53
2022/12/26 00:13:43;;;;;;;24.38;17.25;;;10.60;99.90;;;;;;5115376;28;20534;-53
2022/12/26 00:16:16;;;;;;;36.33;20.02;;;10.60;99.90;;;;;;5115022;28;20173;-54
2022/12/26 00:18:42;;;;;;;52.40;26.45;;;10.60;99.90;;;;;;5115213;27;20176;-54
2022/12/26 00:21:13;;;;;;;29.58;20.83;;;10.60;99.90;;;;;;5114943;28;20177;-52
2022/12/26 00:23:41;;;;;;;24.98;18.65;;;10.70;99.90;;;;;;5115362;28;20165;-54
2022/12/26 00:26:15;;;;;;;30.38;20.73;;;10.80;99.90;;;;;;5114881;28;20174;-53
2022/12/26 00:28:41;;;;;;;34.30;22.23;;;10.70;99.90;;;;;;5114902;28;20166;-53
2022/12/26 00:31:10;;;;;;;40.08;22.52;;;10.60;99.90;;;;;;5114815;28;20166;-53
2022/12/26 00:33:37;;;;;;;45.25;23.35;;;10.60;99.90;;;;;;5114833;28;20189;-54
2022/12/26 00:36:05;;;;;;;35.97;21.98;;;10.60;99.90;;;;;;5114569;28;20492;-52
2022/12/26 00:38:31;;;;;;;34.17;21.65;;;10.60;99.90;;;;;;5114240;28;20185;-54
2022/12/26 00:40:56;;;;;;;37.90;23.23;;;10.70;99.90;;;;;;5114861;28;20178;-53
2022/12/26 00:43:22;;;;;;;31.70;22.02;;;10.60;99.90;;;;;;5114547;28;20203;-54
2022/12/26 00:45:48;;;;;;;27.90;21.23;;;10.70;99.90;;;;;;5114453;28;20526;-56
2022/12/26 00:48:13;;;;;;;36.00;23.13;;;10.80;99.90;;;;;;5114353;28;20169;-53
2022/12/26 00:50:39;;;;;;;35.88;23.13;;;10.80;99.90;;;;;;5114577;28;20668;-53
2022/12/26 00:53:05;;;;;;;28.25;20.75;;;10.80;99.90;;;;;;5112986;28;20219;-53
2022/12/26 00:55:31;;;;;;;35.50;21.30;;;10.70;99.90;;;;;;5114324;28;20181;-53
2022/12/26 00:57:56;;;;;;;29.33;20.15;;;10.60;99.90;;;;;;5113366;28;20222;-54
2022/12/26 01:00:22;;;;;;;40.65;21.42;;;10.60;99.90;;;;;;5114547;28;20225;-53
2022/12/26 01:02:48;;;;;;;20.70;17.50;;;10.60;99.90;;;;;;5114177;28;20208;-55
2022/12/26 01:05:13;;;;;;;24.25;18.23;;;10.70;99.90;;;;;;5114268;28;20184;-54
2022/12/26 01:07:40;;;;;;;24.02;17.58;;;10.80;99.90;;;;;;5114100;28;20627;-54
2022/12/26 01:10:07;;;;;;;29.27;18.60;;;10.80;99.90;;;;;;5114064;28;20169;-53
2022/12/26 01:12:33;;;;;;;24.70;17.65;;;10.70;99.90;;;;;;5112518;28;20273;-53
2022/12/26 01:14:59;;;;;;;16.80;15.10;;;10.60;99.90;;;;;;5114125;28;20598;-54
2022/12/26 01:17:27;;;;;;;19.92;15.95;;;10.50;99.90;;;;;;5112855;28;20268;-53
2022/12/26 01:19:53;;;;;;;22.17;16.77;;;10.50;99.90;;;;;;5113671;28;20676;-53
2022/12/26 01:22:20;;;;;;;19.05;15.57;;;10.40;99.90;;;;;;5113920;28;20165;-53
2022/12/26 01:24:45;;;;;;;16.50;14.40;;;10.60;99.90;;;;;;5113917;28;20230;-53
2022/12/26 01:27:11;;;;;;;16.50;13.60;;;10.50;99.90;;;;;;5113725;28;20178;-53
2022/12/26 01:29:37;;;;;;;18.60;14.50;;;10.60;99.90;;;;;;5112688;28;20626;-56
2022/12/26 01:32:03;;;;;;;17.95;14.68;;;10.60;99.90;;;;;;5113833;28;20240;-53
2022/12/26 01:34:29;;;;;;;23.45;16.60;;;10.50;99.90;;;;;;5113803;28;20169;-55
2022/12/26 01:36:54;;;;;;;24.33;16.25;;;10.50;99.90;;;;;;5113850;28;20177;-52
2022/12/26 01:39:20;;;;;;;19.10;15.20;;;10.50;99.90;;;;;;5113729;28;20739;-53
2022/12/26 01:41:46;;;;;;;22.73;14.82;;;10.60;99.90;;;;;;5113880;28;20280;-53
2022/12/26 01:44:49;;;;;;;19.63;14.75;;;10.60;99.90;;;;;;5113494;28;20281;-54
2022/12/26 01:47:16;;;;;;;17.38;14.23;;;10.60;99.90;;;;;;5113677;28;20169;-53
2022/12/26 01:49:48;;;;;;;18.58;13.65;;;10.60;99.90;;;;;;5113542;28;20196;-53
2022/12/26 01:52:25;;;;;;;15.80;14.00;;;10.50;99.90;;;;;;5113390;28;20239;-53
2022/12/26 01:54:53;;;;;;;24.33;15.80;;;10.60;99.90;;;;;;5114257;28;20172;-53
2022/12/26 01:57:26;;;;;;;17.13;14.98;;;10.50;99.90;;;;;;5113628;28;20520;-53
2022/12/26 01:59:54;;;;;;;17.98;14.98;;;10.40;99.90;;;;;;5113407;28;20621;-53
2022/12/26 02:02:22;;;;;;;16.15;14.48;;;10.30;99.90;;;;;;5113793;28;20270;-53
2022/12/26 02:07:42;;;;;;;20.92;15.95;;;10.10;99.90;;;;;;5113781;28;20649;-51
2022/12/26 02:10:12;;;;;;;16.15;13.80;;;10.20;99.90;;;;;;5113591;28;20165;-51
2022/12/26 02:12:39;;;;;;;22.98;15.27;;;10.10;99.90;;;;;;5113280;28;20213;-52
2022/12/26 02:15:12;;;;;;;18.08;13.93;;;10.10;99.90;;;;;;5112162;28;20225;-53
2022/12/26 02:17:39;;;;;;;15.23;13.65;;;10.00;99.90;;;;;;5113570;28;20161;-54
2022/12/26 02:20:22;;;;;;;27.17;16.17;;;10.10;99.90;;;;;;5112163;28;20180;-55
2022/12/26 02:23:18;;;;;;;17.55;13.80;;;10.00;99.90;;;;;;5113327;28;20177;-57
2022/12/26 02:25:56;;;;;;;20.17;14.25;;;10.00;99.90;;;;;;5113456;28;20570;-53
2022/12/26 02:28:58;;;;;;;15.48;12.73;;;10.00;99.90;;;;;;5113369;28;20169;-51
2022/12/26 02:31:47;;;;;;;18.38;13.85;;;9.90;99.90;;;;;;5114612;28;20572;-54
2022/12/26 02:34:37;;;;;;;12.68;11.30;;;10.00;99.90;;;;;;5117553;28;20243;-55
2022/12/26 02:37:22;;;;;;;14.95;12.70;;;10.00;99.90;;;;;;5117112;28;20169;-52
2022/12/26 02:40:16;;;;;;;16.30;12.93;;;10.00;99.90;;;;;;5116889;28;20534;-57
2022/12/26 02:43:01;;;;;;;14.75;12.77;;;10.00;99.90;;;;;;5117148;27;20192;-56
2022/12/26 02:48:36;;;;;;;14.60;11.45;;;9.90;99.90;;;;;;5116993;28;20200;-54
2022/12/26 03:14:26;;;;;;;11.32;9.55;;;9.80;99.90;;;;;;5116610;28;20226;-53
2022/12/26 03:19:58;;;;;;;11.30;8.48;;;9.70;99.90;;;;;;5116418;28;20191;-54
2022/12/26 03:22:30;;;;;;;15.65;10.65;;;9.80;99.90;;;;;;5116345;28;20252;-55
2022/12/26 03:27:41;;;;;;;11.07;8.68;;;9.80;99.90;;;;;;5116066;28;20675;-54
2022/12/26 03:32:55;;;;;;;12.85;9.38;;;9.80;99.90;;;;;;5114859;28;20227;-52
2022/12/26 03:35:21;;;;;;;11.80;9.55;;;9.80;99.90;;;;;;5115884;27;20165;-55
2022/12/26 03:37:53;;;;;;;11.75;9.63;;;9.70;99.90;;;;;;5116138;28;20633;-54
2022/12/26 04:19:26;;;;;;;19.02;14.27;;;9.60;99.90;;;;;;5115094;28;20583;-54
2022/12/26 04:45:19;;;;;;;15.00;11.65;;;10.00;99.90;;;;;;5064721;28;20227;-55
2022/12/26 04:50:10;;;;;;;14.32;10.77;;;10.00;99.90;;;;;;5114712;28;20194;-54
2022/12/26 04:50:30;;;;;;;12.75;10.48;;;10.10;99.90;;;;;;5114439;28;20523;-54
2022/12/26 04:52:59;;;;;;;15.07;10.73;;;10.00;99.90;;;;;;5112969;28;20213;-51
2022/12/26 04:55:31;;;;;;;11.93;10.10;;;9.90;99.90;;;;;;5112503;28;20178;-54
2022/12/26 04:57:58;;;;;;;10.35;9.27;;;10.10;99.90;;;;;;5113631;28;20593;-54
2022/12/26 05:00:26;;;;;;;11.60;9.85;;;10.00;99.90;;;;;;5114300;28;20626;-55
2022/12/26 05:11:19;;;;;;;10.07;8.73;;;10.10;99.90;;;;;;5114178;28;20234;-55
2022/12/26 05:13:45;;;;;;;10.88;8.02;;;10.10;99.90;;;;;;5114024;28;20630;-53
2022/12/26 05:30:00;;;;;;;8.75;7.65;;;9.80;99.90;;;;;;5114091;28;20676;-55
2022/12/26 05:35:09;;;;;;;9.65;6.68;;;9.80;99.90;;;;;;5113983;28;20219;-53
2022/12/26 05:37:35;;;;;;;8.05;7.22;;;9.70;99.90;;;;;;5114224;28;20180;-51
2022/12/26 05:40:01;;;;;;;9.38;7.20;;;9.70;99.90;;;;;;5114098;28;20246;-52
2022/12/26 05:42:27;;;;;;;7.95;6.95;;;9.60;99.90;;;;;;5113708;28;20173;-54
2022/12/26 05:44:52;;;;;;;7.80;5.90;;;9.70;99.90;;;;;;5112277;28;20216;-54
2022/12/26 05:47:18;;;;;;;7.65;6.10;;;9.70;99.90;;;;;;5113550;28;20169;-50
2022/12/26 05:49:44;;;;;;;9.00;5.45;;;9.70;99.90;;;;;;5113456;28;20208;-51
2022/12/26 05:52:09;;;;;;;8.63;5.93;;;9.60;99.90;;;;;;5113597;28;20258;-53
2022/12/26 05:54:35;;;;;;;5.75;5.18;;;9.60;99.90;;;;;;5112368;28;20204;-51
2022/12/26 05:57:02;;;;;;;6.25;5.35;;;9.60;99.90;;;;;;5113872;28;20708;-53
2022/12/26 05:59:28;;;;;;;6.38;5.07;;;9.50;99.90;;;;;;5113569;28;20223;-50
2022/12/26 06:01:54;;;;;;;5.80;4.90;;;9.50;99.90;;;;;;5112239;28;20181;-51
2022/12/26 06:04:20;;;;;;;8.00;5.07;;;9.60;99.90;;;;;;5113334;28;20630;-53
2022/12/26 06:06:46;;;;;;;8.00;5.70;;;9.40;99.90;;;;;;5115508;28;20197;-50
2022/12/26 06:09:11;;;;;;;7.15;5.97;;;9.50;99.90;;;;;;5117510;28;20284;-56
2022/12/26 06:11:37;;;;;;;8.73;5.80;;;9.60;99.90;;;;;;5117815;28;20180;-51
2022/12/26 06:14:03;;;;;;;8.27;6.30;;;9.50;99.90;;;;;;5117345;28;20176;-53
2022/12/26 06:16:32;;;;;;;8.07;6.13;;;9.60;99.90;;;;;;5117365;28;20165;-51
2022/12/26 06:18:57;;;;;;;8.60;5.85;;;9.60;99.90;;;;;;5117338;28;20200;-51
2022/12/26 06:21:23;;;;;;;8.13;6.38;;;9.60;99.90;;;;;;5117477;28;20632;-51
2022/12/26 06:23:49;;;;;;;7.95;6.38;;;9.70;99.90;;;;;;5117277;28;20202;-53
2022/12/26 06:26:15;;;;;;;8.55;6.55;;;9.80;99.90;;;;;;5117163;28;20181;-51
2022/12/26 06:28:42;;;;;;;8.13;6.85;;;9.80;99.90;;;;;;5117180;28;20222;-54
2022/12/26 06:31:11;;;;;;;9.18;6.35;;;9.80;99.90;;;;;;5117079;28;20177;-54
2022/12/26 06:33:37;;;;;;;7.25;6.30;;;9.80;99.90;;;;;;5116808;28;20628;-54
2022/12/26 06:36:03;;;;;;;7.07;5.50;;;9.80;99.90;;;;;;5115953;28;20291;-52
2022/12/26 06:38:29;;;;;;;8.57;6.10;;;9.60;99.90;;;;;;5117089;28;20171;-53
2022/12/26 06:40:55;;;;;;;7.93;5.85;;;9.70;99.90;;;;;;5116733;28;20198;-53
2022/12/26 06:43:20;;;;;;;7.65;5.95;;;9.70;99.90;;;;;;5117344;28;20193;-53
2022/12/26 06:45:54;;;;;;;6.15;5.53;;;9.70;99.90;;;;;;5116779;28;20185;-54
2022/12/26 06:48:20;;;;;;;8.82;6.18;;;9.80;99.90;;;;;;5115325;28;20177;-54
2022/12/26 06:50:46;;;;;;;6.43;5.57;;;9.80;99.90;;;;;;5116910;28;20642;-53
2022/12/26 06:53:11;;;;;;;7.25;5.07;;;9.80;99.90;;;;;;5116768;28;20665;-53
2022/12/26 06:55:37;;;;;;;7.22;5.03;;;9.70;99.90;;;;;;5115640;28;20701;-50
2022/12/26 06:58:02;;;;;;;7.18;5.00;;;9.80;99.90;;;;;;5116350;28;20582;-51
2022/12/26 07:00:33;;;;;;;5.85;4.80;;;9.80;99.90;;;;;;5116305;28;20657;-54
2022/12/26 07:02:59;;;;;;;4.97;4.07;;;9.80;99.90;;;;;;5114913;28;20515;-55
2022/12/26 07:05:24;;;;;;;5.57;4.30;;;9.80;99.90;;;;;;5116770;28;20226;-52
2022/12/26 07:07:51;;;;;;;7.03;4.28;;;9.80;99.90;;;;;;5116452;28;20173;-54
2022/12/26 07:10:17;;;;;;;6.53;4.10;;;9.80;99.90;;;;;;5116247;28;20250;-52
2022/12/26 07:12:43;;;;;;;5.78;3.88;;;9.80;99.90;;;;;;5114758;28;20223;-54
2022/12/26 07:15:10;;;;;;;6.15;3.90;;;9.80;99.90;;;;;;5116132;28;20177;-53
2022/12/26 07:17:36;;;;;;;4.53;3.42;;;9.80;99.90;;;;;;5115713;28;20203;-55
2022/12/26 07:20:04;;;;;;;5.40;3.35;;;9.80;99.90;;;;;;5116229;28;20184;-51
2022/12/26 07:22:30;;;;;;;5.50;3.00;;;9.70;99.90;;;;;;5115827;28;20201;-51
2022/12/26 07:24:55;;;;;;;4.57;3.45;;;9.70;99.90;;;;;;5114791;28;20165;-51
2022/12/26 07:27:21;;;;;;;6.00;5.15;;;9.80;99.90;;;;;;5097642;28;20185;-53
2022/12/26 07:29:46;;;;;;;7.25;4.45;;;9.80;99.90;;;;;;5113330;28;20189;-52
2022/12/26 07:32:12;;;;;;;7.78;3.28;;;9.70;99.90;;;;;;5115078;28;20209;-54
2022/12/26 07:34:38;;;;;;;7.93;4.40;;;9.80;99.90;;;;;;5115932;28;20660;-52
2022/12/26 07:37:04;;;;;;;4.57;3.33;;;9.60;99.90;;;;;;5097401;28;20169;-51
2022/12/26 07:39:29;;;;;;;6.55;3.50;;;9.70;99.90;;;;;;5115497;28;20627;-51
2022/12/26 07:41:58;;;;;;;5.60;3.20;;;9.70;99.90;;;;;;5113681;28;20735;-52
2022/12/26 07:44:28;;;;;;;7.07;3.08;;;9.60;99.90;;;;;;5111117;28;20193;-55
2022/12/26 07:46:55;;;;;;;5.32;3.00;;;9.70;99.90;;;;;;5114835;28;20182;-53
2022/12/26 07:49:21;;;;;;;5.15;2.85;;;9.80;99.90;;;;;;5115275;28;20199;-52
2022/12/26 07:51:47;;;;;;;5.97;2.70;;;9.70;99.90;;;;;;5112362;28;20247;-52
2022/12/26 07:54:13;;;;;;;4.50;2.70;;;9.70;99.90;;;;;;5112382;28;20207;-54
2022/12/26 07:56:39;;;;;;;5.97;2.65;;;9.70;99.90;;;;;;5114209;28;20174;-54
2022/12/26 07:59:05;;;;;;;6.43;2.50;;;9.70;99.90;;;;;;5115533;28;20530;-51
2022/12/26 08:01:31;;;;;;;4.97;2.47;;;9.80;99.90;;;;;;5114851;28;20310;-54
2022/12/26 08:03:56;;;;;;;4.57;2.45;;;9.80;99.90;;;;;;5113694;28;20184;-52
2022/12/26 08:06:22;;;;;;;4.25;2.33;;;9.70;99.90;;;;;;5115038;28;20172;-53
2022/12/26 08:08:49;;;;;;;4.78;2.65;;;9.80;99.90;;;;;;5113956;28;20177;-55
2022/12/26 08:11:19;;;;;;;7.45;2.72;;;9.90;99.90;;;;;;5115076;28;20174;-54
2022/12/26 08:13:45;;;;;;;7.32;3.15;;;9.90;99.90;;;;;;5115210;28;20232;-53
2022/12/26 08:16:13;;;;;;;5.75;2.50;;;9.90;99.90;;;;;;5115076;28;20165;-53
2022/12/26 08:18:39;;;;;;;4.00;2.28;;;9.90;99.90;;;;;;5115099;28;20596;-53
2022/12/26 08:21:04;;;;;;;7.13;2.63;;;9.90;99.90;;;;;;5115095;28;20173;-51
2022/12/26 08:23:30;;;;;;;4.82;2.47;;;9.90;99.90;;;;;;5114978;28;20261;-54
2022/12/26 08:25:56;;;;;;;7.43;2.72;;;10.00;99.90;;;;;;5114748;28;20260;-55
2022/12/26 08:28:22;;;;;;;7.10;2.45;;;10.00;99.90;;;;;;5113799;28;20212;-51
2022/12/26 08:30:48;;;;;;;5.00;2.47;;;10.00;99.90;;;;;;5113332;28;20169;-56
2022/12/26 08:33:15;;;;;;;6.55;2.50;;;10.00;99.90;;;;;;5114653;28;20678;-52
2022/12/26 08:35:40;;;;;;;5.10;2.38;;;10.20;99.90;;;;;;5114494;28;20176;-54
2022/12/26 08:38:06;;;;;;;8.35;2.50;;;10.20;99.90;;;;;;5113752;28;20177;-51
2022/12/26 08:40:32;;;;;;;4.40;2.38;;;10.40;99.90;;;;;;5114462;28;20218;-54
2022/12/26 08:42:58;;;;;;;4.40;2.20;;;10.50;99.90;;;;;;5114755;28;20521;-52
2022/12/26 08:45:24;;;;;;;4.65;2.15;;;10.50;99.90;;;;;;5114660;28;20181;-56
2022/12/26 08:47:50;;;;;;;5.85;2.00;;;10.60;99.90;;;;;;5114560;28;20193;-54
2022/12/26 08:50:16;;;;;;;8.70;3.50;;;10.50;99.90;;;;;;5113192;28;20173;-54
2022/12/26 08:52:42;;;;;;;3.72;2.10;;;10.50;99.90;;;;;;5114295;28;20227;-55
2022/12/26 08:55:09;;;;;;;6.65;2.28;;;10.60;99.90;;;;;;5114521;28;20173;-55
2022/12/26 08:57:34;;;;;;;3.85;1.80;;;10.50;99.90;;;;;;5114405;28;20165;-55
2022/12/26 09:00:00;;;;;;;6.13;1.95;;;10.60;99.90;;;;;;5114353;28;20603;-54
2022/12/26 09:02:26;;;;;;;5.40;2.30;;;10.60;99.90;;;;;;5112926;28;20705;-51
2022/12/26 09:04:51;;;;;;;6.68;2.10;;;10.70;99.90;;;;;;5114106;28;20170;-51
2022/12/26 09:07:17;;;;;;;5.57;2.20;;;10.60;99.90;;;;;;5114153;28;20614;-50
2022/12/26 09:09:43;;;;;;;5.05;2.20;;;10.60;99.90;;;;;;5114165;28;20222;-54
2022/12/26 09:12:09;;;;;;;3.22;1.80;;;10.60;99.90;;;;;;5114253;28;20246;-53
2022/12/26 09:14:35;;;;;;;4.07;2.05;;;10.60;99.90;;;;;;5114152;28;20173;-51
2022/12/26 09:17:01;;;;;;;5.10;1.90;;;10.50;99.90;;;;;;5114054;28;20256;-51
2022/12/26 09:19:31;;;;;;;7.05;2.42;;;10.50;99.90;;;;;;5113991;28;20500;-52
2022/12/26 09:24:42;;;;;;;4.07;2.08;;;10.40;99.90;;;;;;5114317;28;20184;-53
2022/12/26 09:27:08;;;;;;;3.97;2.15;;;10.40;99.90;;;;;;5113760;28;20173;-51
2022/12/26 09:29:37;;;;;;;4.72;1.98;;;10.40;99.90;;;;;;5112920;28;20624;-53
2022/12/26 09:32:09;;;;;;;5.50;2.00;;;10.30;99.90;;;;;;5113736;28;20215;-53
2022/12/26 09:34:34;;;;;;;6.65;2.20;;;10.30;99.90;;;;;;5113991;28;20172;-51
2022/12/26 09:37:03;;;;;;;4.80;2.15;;;10.30;99.90;;;;;;5113896;28;20174;-51
2022/12/26 09:39:29;;;;;;;4.82;2.22;;;10.50;99.90;;;;;;5113644;28;20181;-51
2022/12/26 09:42:10;;;;;;;3.85;2.03;;;10.60;99.90;;;;;;5113550;28;20185;-53
2022/12/26 09:45:08;;;;;;;5.45;1.95;;;10.70;99.90;;;;;;5113651;28;20185;-53
2022/12/26 09:47:39;;;;;;;7.30;2.50;;;10.70;99.90;;;;;;5100297;28;20181;-51
2022/12/26 09:50:12;;;;;;;5.07;2.88;;;10.60;99.90;;;;;;5113531;28;20189;-54
2022/12/26 09:53:10;;;;;;;7.20;2.67;;;10.60;99.90;;;;;;5113698;28;20197;-54
2022/12/26 09:55:43;;;;;;;4.53;2.42;;;10.60;99.90;;;;;;5113419;28;20177;-54
2022/12/26 09:58:37;;;;;;;7.85;2.50;;;10.80;99.90;;;;;;5113708;28;20221;-51
2022/12/26 10:01:12;;;;;;;6.22;2.80;;;11.00;99.90;;;;;;5089178;28;20527;-51
2022/12/26 10:03:43;;;;;;;6.05;2.28;;;11.10;99.90;;;;;;5113784;28;20172;-52
2022/12/26 10:06:14;;;;;;;5.72;2.10;;;10.90;99.90;;;;;;5113350;28;20169;-53
2022/12/26 10:09:02;;;;;;;8.68;2.40;;;10.80;99.90;;;;;;5113595;28;20166;-53
2022/12/26 10:11:55;;;;;;;7.05;2.67;;;10.80;99.90;;;;;;5113209;28;20619;-54
2022/12/26 10:14:29;;;;;;;7.72;2.00;;;10.70;99.90;;;;;;5113291;28;20173;-54
2022/12/26 10:17:15;;;;;;;7.82;2.10;;;10.60;99.90;;;;;;5113541;28;20620;-51
2022/12/26 10:19:47;;;;;;;9.35;2.17;;;10.60;99.90;;;;;;5113402;28;20173;-51
2022/12/26 10:22:16;;;;;;;10.15;2.20;;;10.60;99.90;;;;;;5113224;28;20623;-52
2022/12/26 10:24:43;;;;;;;9.50;2.03;;;10.50;99.90;;;;;;5112890;28;20646;-52
2022/12/26 10:27:15;;;;;;;7.70;2.25;;;10.50;99.90;;;;;;5113386;28;20169;-54
2022/12/26 10:29:51;;;;;;;8.20;2.28;;;10.40;99.90;;;;;;5113297;28;20161;-54
2022/12/26 10:32:38;;;;;;;10.38;2.40;;;10.30;99.90;;;;;;5113436;28;20196;-54
2022/12/26 10:35:27;;;;;;;7.82;2.25;;;10.30;99.90;;;;;;5113063;28;20180;-52
2022/12/26 10:37:53;;;;;;;7.90;2.35;;;10.20;99.90;;;;;;5113276;28;20165;-52
2022/12/26 10:40:37;;;;;;;13.43;2.72;;;10.30;99.90;;;;;;5112978;28;20179;-54
2022/12/26 10:43:29;;;;;;;8.73;2.30;;;10.10;99.90;;;;;;5113266;28;20300;-55
2022/12/26 10:46:20;;;;;;;5.00;2.00;;;10.20;99.90;;;;;;5113579;28;20219;-51
2022/12/26 10:48:47;;;;;;;11.05;2.90;;;10.30;99.90;;;;;;5113439;28;20260;-54
2022/12/26 10:51:13;;;;;;;11.38;2.42;;;10.30;99.90;;;;;;5113002;28;20184;-51
2022/12/26 10:53:48;;;;;;;12.38;2.80;;;10.30;99.90;;;;;;5116318;28;20219;-51
2022/12/26 10:56:14;;;;;;;6.60;2.00;;;10.30;99.90;;;;;;5116915;28;20173;-51
2022/12/26 10:58:42;;;;;;;9.80;2.67;;;10.40;99.90;;;;;;5116817;28;20252;-51
2022/12/26 11:01:46;;;;;;;10.68;2.67;;;10.40;99.90;;;;;;5116624;28;20191;-51
2022/12/26 11:04:23;;;;;;;14.73;2.85;;;10.30;99.90;;;;;;5053130;28;20186;-55
2022/12/26 11:06:54;;;;;;;7.65;2.47;;;10.50;99.90;;;;;;5105718;28;20634;-51
2022/12/26 11:09:44;;;;;;;8.70;2.63;;;10.30;99.90;;;;;;5116204;28;20161;-52
2022/12/26 11:12:37;;;;;;;11.50;2.70;;;10.10;99.90;;;;;;5115684;28;20214;-53
2022/12/26 11:15:06;;;;;;;9.10;2.38;;;10.10;99.90;;;;;;5116042;28;20518;-53
2022/12/26 11:17:42;;;;;;;8.07;2.65;;;10.10;99.90;;;;;;5115862;28;20172;-51
2022/12/26 11:20:14;;;;;;;7.63;2.50;;;10.20;99.90;;;;;;5115816;28;20173;-51
2022/12/26 11:22:40;;;;;;;10.25;2.22;;;10.20;99.90;;;;;;5115595;28;20169;-52
2022/12/26 11:25:09;;;;;;;8.73;2.33;;;10.30;99.90;;;;;;5115541;28;20162;-52
2022/12/26 11:28:17;;;;;;;9.60;2.20;;;10.30;99.90;;;;;;5115616;28;20173;-51
2022/12/26 11:30:47;;;;;;;7.43;1.90;;;10.40;99.90;;;;;;5115356;28;20173;-51
2022/12/26 11:33:22;;;;;;;8.52;1.83;;;10.30;99.90;;;;;;5115300;28;20193;-51
2022/12/26 11:35:51;;;;;;;4.93;1.85;;;10.30;99.90;;;;;;5115650;28;20214;-53
2022/12/26 11:38:34;;;;;;;8.50;2.25;;;10.30;99.90;;;;;;5115431;28;20522;-51
2022/12/26 11:43:52;;;;;;;7.38;2.10;;;10.10;99.90;;;;;;5115644;28;20208;-55
2022/12/26 11:46:21;;;;;;;6.80;2.03;;;10.00;99.90;;;;;;5115083;28;20650;-54
2022/12/26 11:48:50;;;;;;;6.18;1.80;;;10.00;99.90;;;;;;5115456;28;20175;-54
2022/12/26 11:51:29;;;;;;;9.23;1.90;;;9.90;99.90;;;;;;5115148;28;20168;-55
2022/12/26 11:54:22;;;;;;;7.00;2.10;;;9.90;99.90;;;;;;5113837;28;20543;-54
2022/12/26 11:56:57;;;;;;;5.63;1.80;;;9.90;99.90;;;;;;5115182;28;20223;-56
2022/12/26 11:59:22;;;;;;;6.95;1.75;;;9.90;99.90;;;;;;5115017;28;20226;-52
2022/12/26 12:02:11;;;;;;;7.60;2.03;;;9.70;99.90;;;;;;5113685;28;20173;-55
2022/12/26 12:04:37;;;;;;;4.97;1.75;;;9.70;99.90;;;;;;5114725;28;20165;-54
2022/12/26 12:07:14;;;;;;;8.90;1.80;;;9.80;99.90;;;;;;5114948;28;20238;-53
2022/12/26 12:09:48;;;;;;;8.00;1.90;;;9.80;99.90;;;;;;5114921;28;20170;-51
2022/12/26 12:12:31;;;;;;;5.13;1.80;;;9.30;99.90;;;;;;5114603;28;20208;-51
2022/12/26 12:15:21;;;;;;;5.72;1.88;;;9.10;99.90;;;;;;5114625;28;20173;-52
2022/12/26 12:18:14;;;;;;;4.50;1.60;;;9.30;99.90;;;;;;5114844;28;20527;-54
2022/12/26 12:20:58;;;;;;;6.05;1.80;;;9.30;99.90;;;;;;5114558;28;20661;-54
2022/12/26 12:23:42;;;;;;;6.57;2.20;;;9.30;99.90;;;;;;5114465;28;20201;-53
2022/12/26 12:26:24;;;;;;;6.25;1.83;;;9.30;99.90;;;;;;5114861;28;20603;-54
2022/12/26 12:29:35;;;;;;;6.53;2.00;;;9.40;99.90;;;;;;5114493;28;20248;-53
2022/12/26 12:32:24;;;;;;;6.45;1.70;;;9.50;99.90;;;;;;5100670;28;20215;-55
2022/12/26 12:34:52;;;;;;;5.55;1.88;;;9.60;99.90;;;;;;5114122;28;20531;-55
2022/12/26 12:37:36;;;;;;;5.05;1.65;;;9.70;99.90;;;;;;5114223;28;20165;-52
2022/12/26 12:40:32;;;;;;;6.80;2.38;;;9.80;99.90;;;;;;5114102;28;20669;-52
2022/12/26 12:43:12;;;;;;;6.25;2.08;;;9.60;99.90;;;;;;5114419;28;20304;-51
2022/12/26 12:46:14;;;;;;;9.20;2.58;;;9.60;99.90;;;;;;5114139;28;20180;-52
2022/12/26 12:48:40;;;;;;;5.60;2.10;;;9.70;99.90;;;;;;5114035;28;20173;-51
2022/12/26 12:51:24;;;;;;;8.82;1.88;;;9.70;99.90;;;;;;5113998;28;20169;-51
2022/12/26 12:54:07;;;;;;;6.25;2.22;;;9.60;99.90;;;;;;5113909;28;20212;-51
2022/12/26 12:56:33;;;;;;;6.22;1.98;;;9.70;99.90;;;;;;5113850;28;20242;-52
2022/12/26 12:59:18;;;;;;;7.80;2.05;;;9.60;99.90;;;;;;5113663;28;20173;-51
2022/12/26 13:01:48;;;;;;;5.72;1.85;;;9.60;99.90;;;;;;5113888;28;20691;-52
2022/12/26 13:04:32;;;;;;;7.00;1.90;;;9.60;99.90;;;;;;5113701;28;20630;-51
2022/12/26 13:07:10;;;;;;;6.28;1.60;;;9.60;99.90;;;;;;5113757;28;20177;-52
2022/12/26 13:09:49;;;;;;;5.95;1.85;;;9.60;99.90;;;;;;5113504;28;20172;-52
2022/12/26 13:12:29;;;;;;;8.45;2.15;;;9.70;99.90;;;;;;5113895;28;20298;-51
2022/12/26 13:14:56;;;;;;;6.85;1.90;;;9.70;99.90;;;;;;5113132;28;20242;-52
2022/12/26 13:17:24;;;;;;;8.15;2.00;;;9.60;99.90;;;;;;5113419;28;20173;-51
2022/12/26 13:20:29;;;;;;;7.65;2.03;;;9.50;99.90;;;;;;5113349;28;20165;-52
2022/12/26 13:26:02;;;;;;;4.70;1.90;;;9.30;99.90;;;;;;5113601;28;20192;-51
2022/12/26 13:28:35;;;;;;;7.63;2.33;;;9.20;99.90;;;;;;5113325;28;20160;-52
2022/12/26 13:31:00;;;;;;;4.03;1.63;;;9.00;99.90;;;;;;5113456;28;20161;-51
2022/12/26 13:33:27;;;;;;;7.20;1.67;;;9.10;99.90;;;;;;5113110;28;20562;-51
2022/12/26 13:35:56;;;;;;;5.50;1.90;;;9.00;99.90;;;;;;5111839;28;20185;-54
2022/12/26 13:38:23;;;;;;;5.75;1.63;;;8.80;99.90;;;;;;5113080;28;20657;-51
2022/12/26 13:40:54;;;;;;;6.55;2.33;;;8.60;99.90;;;;;;5113394;28;20169;-53
2022/12/26 13:46:33;;;;;;;6.13;2.05;;;8.50;99.90;;;;;;5113363;28;20187;-50
2022/12/26 13:48:59;;;;;;;5.00;1.90;;;8.50;99.90;;;;;;5104761;28;20181;-52
2022/12/26 13:51:44;;;;;;;6.55;1.55;;;8.50;99.90;;;;;;5113181;28;20223;-54
2022/12/26 13:54:11;;;;;;;4.47;1.50;;;8.50;99.90;;;;;;5113195;28;20179;-52
2022/12/26 13:56:40;;;;;;;5.10;1.92;;;8.30;99.90;;;;;;5113282;28;20172;-53
2022/12/26 13:59:18;;;;;;;6.85;1.77;;;8.30;99.90;;;;;;5113185;28;20175;-52
2022/12/26 14:02:05;;;;;;;6.22;1.60;;;8.20;99.90;;;;;;5111788;28;20534;-53
2022/12/26 14:04:48;;;;;;;6.13;1.98;;;8.30;99.90;;;;;;5113017;28;20180;-54
2022/12/26 14:07:36;;;;;;;5.75;1.83;;;8.20;99.90;;;;;;5112889;28;20218;-53
2022/12/26 14:10:15;;;;;;;5.15;1.50;;;8.20;99.90;;;;;;5112839;28;20756;-51
2022/12/26 14:13:04;;;;;;;4.13;1.70;;;8.00;99.90;;;;;;5112801;28;20705;-54
2022/12/26 14:15:36;;;;;;;4.28;1.55;;;8.10;99.90;;;;;;5113144;28;20185;-52
2022/12/26 14:18:31;;;;;;;10.25;1.98;;;8.00;99.90;;;;;;5112620;28;20248;-53
2022/12/26 14:21:19;;;;;;;6.40;1.65;;;8.00;99.90;;;;;;5112981;28;20165;-53
2022/12/26 14:24:18;;;;;;;5.72;1.80;;;8.00;99.90;;;;;;5112855;28;20170;-55
2022/12/26 14:27:10;;;;;;;7.05;1.65;;;7.90;99.90;;;;;;5104914;28;20215;-55
2022/12/26 14:30:00;;;;;;;4.55;1.30;;;7.80;99.90;;;;;;5116741;28;20173;-54
2022/12/26 14:32:50;;;;;;;7.45;1.95;;;7.80;99.90;;;;;;5116593;28;20200;-55
2022/12/26 14:35:41;;;;;;;6.53;1.65;;;7.80;99.90;;;;;;5116749;28;20173;-55
2022/12/26 14:38:32;;;;;;;7.55;1.70;;;7.80;99.90;;;;;;5116463;28;20172;-52
2022/12/26 14:41:08;;;;;;;5.32;1.52;;;7.80;99.90;;;;;;5116691;28;20176;-50
2022/12/26 14:43:39;;;;;;;5.60;1.67;;;7.70;99.90;;;;;;5116671;28;20591;-51
2022/12/26 14:46:30;;;;;;;5.30;1.58;;;7.70;99.90;;;;;;5116477;28;20661;-51
2022/12/26 14:48:59;;;;;;;4.60;1.48;;;7.60;99.90;;;;;;5116312;28;20646;-52
2022/12/26 14:51:31;;;;;;;6.63;1.73;;;7.50;99.90;;;;;;5115332;28;20169;-51
2022/12/26 14:54:34;;;;;;;7.63;1.52;;;7.50;99.90;;;;;;5116301;28;20658;-51
2022/12/26 14:57:00;;;;;;;4.80;1.45;;;7.50;99.90;;;;;;5083499;28;20223;-55
2022/12/26 14:59:33;;;;;;;4.68;1.60;;;7.50;99.90;;;;;;5114593;28;20201;-51
2022/12/26 15:02:16;;;;;;;2.63;1.40;;;7.40;99.90;;;;;;5115852;28;20175;-53
2022/12/26 15:05:03;;;;;;;4.78;1.10;;;7.20;99.90;;;;;;5116319;28;20630;-51
2022/12/26 15:07:57;;;;;;;6.15;1.33;;;7.20;99.90;;;;;;5116540;28;20169;-50
2022/12/26 15:10:52;;;;;;;6.55;1.55;;;7.20;99.90;;;;;;5116613;28;20179;-51
2022/12/26 15:13:35;;;;;;;4.63;1.40;;;7.20;99.90;;;;;;5101876;28;20219;-52
2022/12/26 15:16:32;;;;;;;10.38;1.65;;;7.20;99.90;;;;;;5116230;28;20724;-53
2022/12/26 15:19:18;;;;;;;7.13;1.70;;;7.10;99.90;;;;;;5116470;28;20176;-51
2022/12/26 15:22:13;;;;;;;3.42;1.60;;;7.00;99.90;;;;;;5116227;28;20179;-51
2022/12/26 15:25:00;;;;;;;6.00;1.67;;;6.90;99.90;;;;;;5114630;28;20586;-53
2022/12/26 15:27:44;;;;;;;5.38;1.80;;;6.90;99.90;;;;;;5116422;28;20177;-52
2022/12/26 15:30:21;;;;;;;5.68;1.58;;;6.80;99.90;;;;;;5115896;28;20541;-54
2022/12/26 15:32:58;;;;;;;6.72;1.60;;;6.70;99.90;;;;;;5115764;28;20215;-53
2022/12/26 15:35:45;;;;;;;8.27;1.88;;;6.60;99.90;;;;;;5115986;28;20166;-52